Allison, North Carolina
Current Conditions -  °F | °C
As of 2:21 AM on Wednesday 26 Nov 2014 (Local Time) from KDAN Reporting Station
Light Rain Light Rain  
Wind Chill:   Ceiling: 2700
Heat Index:   Visibility: 10mi
Dew Point:   Wind: 8mph
Humidity: 86%   Direction: 50°NE
Pressure: 30.01"   Gusts: NA
Location:  36.4355°N, 79.5464°W
Report Text: KDAN 260721Z AUTO 05007KT 10SM -RA BKN027 OVC060 08/06 A3001 RMK AO2 P0001 T00830061
Loading
Personal Weather Stations






























Interactive Weather Map New forecast layout! Learn more

10-Day Weather Forecast

Advertisements
Track Severe Weather on mobile